Time;durP1;ratioP1;P1;durP2;ratioP2;P2;SDS_P1;SDS_P2;PMS_P1;PMS_P2;Temp;Humidity;BMP_temperature;BMP_pressure;BME280_temperature;BME280_humidity;BME280_pressure;Samples;Min_cycle;Max_cycle;Signal;HPM_P1;HPM_P2
2022/04/01 00:02:03;;;;;;;3.75;1.63;;;;;;;;;;5093759;28;20039;-42
2022/04/01 00:04:29;;;;;;;4.43;1.55;;;;;;;;;;5093929;28;20044;-43
2022/04/01 00:06:55;;;;;;;4.63;1.45;;;;;;;;;;5094091;28;20251;-42
2022/04/01 00:09:23;;;;;;;4.10;1.45;;;;;;;;;;5095091;28;20299;-43
2022/04/01 00:11:49;;;;;;;2.42;1.05;;;;;;;;;;5093475;28;20085;-43
2022/04/01 00:14:15;;;;;;;3.92;1.25;;;;;;;;;;5073958;28;20067;-42
2022/04/01 00:16:43;;;;;;;2.17;0.88;;;;;;;;;;5093100;28;20036;-43
2022/04/01 00:19:09;;;;;;;4.70;1.27;;;;;;;;;;5092900;28;20047;-43
2022/04/01 00:21:35;;;;;;;2.42;1.10;;;;;;;;;;5092921;28;20408;-43
2022/04/01 00:24:01;;;;;;;3.55;1.40;;;;;;;;;;5092027;28;20031;-44
2022/04/01 00:26:27;;;;;;;3.45;1.20;;;;;;;;;;5093457;28;20091;-43
2022/04/01 00:28:53;;;;;;;2.75;1.00;;;;;;;;;;5093248;28;20053;-43
2022/04/01 00:31:21;;;;;;;4.03;1.20;;;;;;;;;;5092571;28;20031;-43
2022/04/01 00:34:15;;;;;;;2.70;1.02;;;;;;;;;;5092548;28;20039;-43
2022/04/01 00:36:35;;;;;;;3.40;1.60;;;;;;;;;;5092809;28;20069;-46
2022/04/01 00:39:01;;;;;;;4.13;1.20;;;;;;;;;;5074172;28;20071;-45
2022/04/01 00:41:28;;;;;;;5.68;1.25;;;;;;;;;;5074178;28;20151;-44
2022/04/01 00:44:13;;;;;;;7.47;2.03;;;;;;;;;;5091765;28;20504;-42
2022/04/01 00:46:47;;;;;;;3.42;1.30;;;;;;;;;;5091476;28;20040;-44
2022/04/01 00:49:13;;;;;;;5.40;1.17;;;;;;;;;;5091810;28;20051;-44
2022/04/01 00:51:41;;;;;;;3.20;0.98;;;;;;;;;;5092499;28;20039;-44
2022/04/01 00:54:08;;;;;;;3.03;1.02;;;;;;;;;;5092142;28;20604;-45
2022/04/01 00:56:35;;;;;;;4.40;1.35;;;;;;;;;;5109058;27;20126;-47
2022/04/01 00:59:02;;;;;;;3.22;1.00;;;;;;;;;;5072709;28;20529;-43
2022/04/01 01:01:28;;;;;;;4.55;1.77;;;;;;;;;;5090774;28;20725;-47
2022/04/01 01:03:54;;;;;;;3.78;0.98;;;;;;;;;;5091736;28;20067;-44
2022/04/01 01:06:24;;;;;;;6.85;1.60;;;;;;;;;;5093232;28;20092;-49
2022/04/01 01:08:51;;;;;;;3.97;1.48;;;;;;;;;;5092676;28;20071;-47
2022/04/01 01:11:17;;;;;;;4.20;1.55;;;;;;;;;;5090987;28;20039;-47
2022/04/01 01:13:44;;;;;;;2.97;1.33;;;;;;;;;;5092150;28;20598;-48
2022/04/01 01:16:10;;;;;;;3.25;1.40;;;;;;;;;;5092533;28;20504;-48
2022/04/01 01:18:36;;;;;;;7.47;1.75;;;;;;;;;;5093325;28;20782;-48
2022/04/01 01:21:02;;;;;;;4.70;1.55;;;;;;;;;;5091265;28;20058;-49
2022/04/01 01:23:32;;;;;;;3.63;1.48;;;;;;;;;;5092752;28;20039;-50
2022/04/01 01:25:58;;;;;;;6.28;1.88;;;;;;;;;;5092339;28;20492;-49
2022/04/01 01:28:27;;;;;;;2.72;1.48;;;;;;;;;;5093683;28;20514;-44
2022/04/01 01:30:53;;;;;;;7.05;1.67;;;;;;;;;;5092123;28;20090;-46
2022/04/01 01:33:22;;;;;;;3.60;1.30;;;;;;;;;;5091452;28;20032;-44
2022/04/01 01:35:50;;;;;;;3.63;1.40;;;;;;;;;;5091936;28;20100;-46
2022/04/01 01:38:19;;;;;;;6.28;2.40;;;;;;;;;;5090838;28;20101;-45
2022/04/01 01:40:46;;;;;;;7.30;2.28;;;;;;;;;;5091469;28;20059;-43
2022/04/01 01:43:13;;;;;;;5.47;1.90;;;;;;;;;;5090910;28;20138;-47
2022/04/01 01:45:39;;;;;;;5.13;1.60;;;;;;;;;;5091993;28;20126;-44
2022/04/01 01:48:05;;;;;;;4.90;1.45;;;;;;;;;;5090741;28;20040;-45
2022/04/01 01:56:05;;;;;;;3.65;1.35;;;;;;;;;;5072004;28;20050;-44
2022/04/01 01:58:34;;;;;;;4.30;1.58;;;;;;;;;;5072369;28;20032;-45
2022/04/01 02:01:00;;;;;;;3.75;1.50;;;;;;;;;;5090324;28;20036;-43
2022/04/01 02:03:26;;;;;;;3.17;1.00;;;;;;;;;;5090297;28;20040;-45
2022/04/01 02:05:55;;;;;;;6.00;1.25;;;;;;;;;;5091239;28;20070;-46
2022/04/01 02:08:22;;;;;;;6.30;1.52;;;;;;;;;;5091814;28;20081;-46
2022/04/01 02:10:48;;;;;;;5.55;1.38;;;;;;;;;;5090916;28;20617;-45
2022/04/01 02:13:14;;;;;;;2.10;1.15;;;;;;;;;;5090088;28;20047;-45
2022/04/01 02:15:41;;;;;;;6.30;1.45;;;;;;;;;;5089825;28;20043;-44
2022/04/01 02:18:07;;;;;;;5.25;1.20;;;;;;;;;;5090863;28;20499;-46
2022/04/01 02:20:33;;;;;;;5.63;1.30;;;;;;;;;;5090766;28;20413;-44
2022/04/01 02:23:00;;;;;;;5.78;1.70;;;;;;;;;;5092319;28;20146;-44
2022/04/01 02:25:27;;;;;;;2.20;1.02;;;;;;;;;;5073368;28;20193;-50
2022/04/01 02:27:53;;;;;;;6.25;1.52;;;;;;;;;;5070832;28;20975;-44
2022/04/01 02:30:20;;;;;;;1.08;0.65;;;;;;;;;;5092925;28;20487;-45
2022/04/01 02:32:47;;;;;;;3.92;1.42;;;;;;;;;;5091433;28;20035;-44
2022/04/01 02:35:13;;;;;;;5.28;2.15;;;;;;;;;;5091920;28;20052;-47
2022/04/01 02:37:39;;;;;;;11.38;1.90;;;;;;;;;;5092435;28;20047;-44
2022/04/01 02:40:06;;;;;;;2.15;0.70;;;;;;;;;;5092115;28;20070;-47
2022/04/01 02:42:32;;;;;;;6.68;1.70;;;;;;;;;;5090095;28;20047;-43
2022/04/01 02:44:59;;;;;;;4.45;1.50;;;;;;;;;;5090538;28;20032;-43
2022/04/01 02:47:25;;;;;;;3.55;0.80;;;;;;;;;;5090959;28;20062;-47
2022/04/01 02:49:52;;;;;;;6.40;1.38;;;;;;;;;;5091047;28;20598;-48
2022/04/01 02:52:18;;;;;;;3.78;1.40;;;;;;;;;;5089355;28;20067;-44
2022/04/01 02:54:46;;;;;;;4.28;1.25;;;;;;;;;;5091384;28;20043;-46
2022/04/01 02:57:13;;;;;;;3.55;1.17;;;;;;;;;;5091363;28;20058;-45
2022/04/01 02:59:39;;;;;;;5.93;1.40;;;;;;;;;;5089931;28;20040;-45
2022/04/01 03:02:07;;;;;;;5.70;1.63;;;;;;;;;;5094027;28;20604;-49
2022/04/01 03:04:33;;;;;;;5.10;1.42;;;;;;;;;;5093713;28;20518;-49
2022/04/01 03:06:59;;;;;;;6.65;1.48;;;;;;;;;;5095033;28;20457;-48
2022/04/01 03:09:26;;;;;;;4.45;1.23;;;;;;;;;;5094844;28;20042;-47
2022/04/01 03:11:54;;;;;;;2.42;0.88;;;;;;;;;;5092628;28;20372;-45
2022/04/01 03:14:22;;;;;;;9.05;2.38;;;;;;;;;;5093905;28;20044;-48
2022/04/01 03:16:51;;;;;;;2.45;1.05;;;;;;;;;;5093419;28;20065;-48
2022/04/01 03:19:17;;;;;;;4.63;1.27;;;;;;;;;;5093632;28;20074;-49
2022/04/01 03:21:44;;;;;;;3.70;1.20;;;;;;;;;;5094656;28;20043;-50
2022/04/01 03:24:11;;;;;;;4.05;1.08;;;;;;;;;;5092861;28;20126;-48
2022/04/01 03:26:37;;;;;;;2.85;1.27;;;;;;;;;;5094365;28;20595;-48
2022/04/01 03:29:04;;;;;;;4.50;1.30;;;;;;;;;;5093815;28;20038;-45
2022/04/01 03:31:30;;;;;;;5.70;1.42;;;;;;;;;;5094141;28;20043;-47
2022/04/01 03:33:58;;;;;;;3.28;0.85;;;;;;;;;;5093119;28;20032;-47
2022/04/01 03:36:24;;;;;;;3.80;1.20;;;;;;;;;;5093766;28;20092;-47
2022/04/01 03:38:50;;;;;;;3.60;0.93;;;;;;;;;;5094028;28;20496;-47
2022/04/01 03:41:16;;;;;;;3.22;1.20;;;;;;;;;;5074060;28;20164;-47
2022/04/01 03:43:42;;;;;;;5.07;1.35;;;;;;;;;;5093217;28;20043;-49
2022/04/01 03:46:13;;;;;;;1.52;0.70;;;;;;;;;;5093299;28;20040;-49
2022/04/01 03:48:45;;;;;;;10.70;1.27;;;;;;;;;;5094981;28;20691;-49
2022/04/01 03:51:19;;;;;;;5.82;1.30;;;;;;;;;;5093781;28;20051;-48
2022/04/01 03:54:05;;;;;;;5.75;1.08;;;;;;;;;;5094445;28;20044;-50
2022/04/01 03:56:38;;;;;;;4.78;0.90;;;;;;;;;;5093896;28;20096;-47
2022/04/01 03:59:05;;;;;;;6.40;1.38;;;;;;;;;;5094082;28;20117;-49
2022/04/01 04:01:31;;;;;;;5.28;0.77;;;;;;;;;;5095007;28;20040;-46
2022/04/01 04:03:57;;;;;;;4.97;1.25;;;;;;;;;;5094267;28;20048;-51
2022/04/01 04:06:23;;;;;;;4.20;1.70;;;;;;;;;;5094209;28;20047;-47
2022/04/01 04:08:53;;;;;;;4.88;1.10;;;;;;;;;;5093008;28;20416;-47
2022/04/01 04:11:23;;;;;;;3.95;1.25;;;;;;;;;;5091695;28;20565;-49
2022/04/01 04:13:52;;;;;;;3.50;0.93;;;;;;;;;;5091935;28;20395;-47
2022/04/01 04:16:20;;;;;;;2.30;1.02;;;;;;;;;;5093399;28;20059;-50
2022/04/01 04:18:48;;;;;;;5.50;1.25;;;;;;;;;;5092508;28;20040;-48
2022/04/01 04:21:24;;;;;;;5.68;1.65;;;;;;;;;;5092345;28;20061;-50
2022/04/01 04:24:03;;;;;;;3.40;1.00;;;;;;;;;;5091908;28;20039;-47
2022/04/01 04:26:30;;;;;;;3.72;1.30;;;;;;;;;;5075808;28;20107;-47
2022/04/01 04:29:01;;;;;;;5.13;1.63;;;;;;;;;;5093024;28;20044;-50
2022/04/01 04:31:30;;;;;;;6.63;1.77;;;;;;;;;;5093077;28;20043;-47
2022/04/01 04:33:57;;;;;;;2.63;1.10;;;;;;;;;;5072592;28;20054;-49
2022/04/01 04:36:31;;;;;;;3.35;1.15;;;;;;;;;;5092260;28;20053;-49
2022/04/01 04:39:00;;;;;;;3.33;0.55;;;;;;;;;;5092461;28;20801;-47
2022/04/01 04:41:26;;;;;;;4.85;1.30;;;;;;;;;;5091795;28;20048;-49
2022/04/01 04:43:53;;;;;;;5.70;1.70;;;;;;;;;;5091854;28;20391;-49
2022/04/01 04:46:20;;;;;;;3.55;1.50;;;;;;;;;;5092425;28;20336;-46
2022/04/01 04:48:47;;;;;;;5.85;1.23;;;;;;;;;;5091306;28;20051;-47
2022/04/01 04:51:14;;;;;;;4.50;1.10;;;;;;;;;;5091639;28;20100;-50
2022/04/01 04:53:40;;;;;;;3.53;1.27;;;;;;;;;;5091811;28;20040;-46
2022/04/01 04:56:07;;;;;;;6.10;1.60;;;;;;;;;;5092163;28;20039;-46
2022/04/01 04:58:40;;;;;;;4.68;1.50;;;;;;;;;;5093641;28;20508;-51
2022/04/01 05:01:19;;;;;;;8.90;1.88;;;;;;;;;;5093557;28;20039;-47
2022/04/01 05:03:55;;;;;;;6.18;1.05;;;;;;;;;;5093085;28;20079;-50
2022/04/01 05:06:27;;;;;;;1.95;0.70;;;;;;;;;;5092270;28;20074;-48
2022/04/01 05:09:16;;;;;;;3.13;0.77;;;;;;;;;;5092650;28;20053;-49
2022/04/01 05:11:42;;;;;;;3.58;1.13;;;;;;;;;;5009946;28;20084;-45
2022/04/01 05:14:31;;;;;;;3.67;1.10;;;;;;;;;;5008216;28;20050;-49
2022/04/01 05:17:10;;;;;;;3.72;0.75;;;;;;;;;;5007711;28;20457;-47
2022/04/01 05:19:38;;;;;;;6.63;1.20;;;;;;;;;;5007883;28;20202;-49
2022/04/01 05:22:09;;;;;;;4.43;1.30;;;;;;;;;;5007123;28;20087;-46
2022/04/01 05:24:39;;;;;;;2.55;1.00;;;;;;;;;;5008141;28;20094;-49
2022/04/01 05:27:07;;;;;;;7.35;1.35;;;;;;;;;;5008252;28;20593;-46
2022/04/01 05:29:37;;;;;;;6.00;1.23;;;;;;;;;;5007879;28;20547;-50
2022/04/01 05:32:05;;;;;;;3.33;1.30;;;;;;;;;;5007020;28;20037;-49
2022/04/01 05:34:41;;;;;;;3.03;1.10;;;;;;;;;;5008260;28;20596;-48
2022/04/01 05:37:08;;;;;;;3.38;0.98;;;;;;;;;;5007996;28;20041;-50
2022/04/01 05:39:35;;;;;;;5.30;1.40;;;;;;;;;;5009374;28;20041;-48
2022/04/01 05:42:01;;;;;;;8.50;1.40;;;;;;;;;;5007630;28;20418;-50
2022/04/01 05:44:27;;;;;;;5.10;1.17;;;;;;;;;;5007462;28;20084;-51
2022/04/01 05:46:54;;;;;;;6.18;1.70;;;;;;;;;;5008392;28;20087;-51
2022/04/01 05:49:21;;;;;;;3.15;1.35;;;;;;;;;;5070329;28;20047;-48
2022/04/01 05:51:48;;;;;;;4.15;1.20;;;;;;;;;;5091437;28;20488;-49
2022/04/01 05:54:20;;;;;;;1.80;0.70;;;;;;;;;;5071011;28;20043;-48
2022/04/01 05:56:47;;;;;;;4.57;1.05;;;;;;;;;;5090536;28;20047;-47
2022/04/01 05:59:14;;;;;;;4.38;1.10;;;;;;;;;;5089844;28;20700;-51
2022/04/01 06:01:42;;;;;;;3.90;1.63;;;;;;;;;;5091990;28;20066;-47
2022/04/01 06:04:14;;;;;;;4.53;1.08;;;;;;;;;;5090368;28;20123;-47
2022/04/01 06:06:42;;;;;;;3.45;0.93;;;;;;;;;;5091151;28;20038;-51
2022/04/01 06:09:27;;;;;;;3.50;1.10;;;;;;;;;;5091280;28;20050;-46
2022/04/01 06:11:53;;;;;;;2.00;0.95;;;;;;;;;;5091237;28;20085;-50
2022/04/01 06:14:30;;;;;;;3.67;1.50;;;;;;;;;;5091877;28;20516;-52
2022/04/01 06:17:28;;;;;;;4.47;1.13;;;;;;;;;;5072395;28;20047;-46
2022/04/01 06:19:57;;;;;;;5.03;1.50;;;;;;;;;;5008491;28;20115;-45
2022/04/01 06:22:24;;;;;;;8.45;1.40;;;;;;;;;;5007939;28;20053;-48
2022/04/01 06:24:59;;;;;;;2.88;1.02;;;;;;;;;;5008559;28;20049;-50
2022/04/01 06:27:39;;;;;;;5.05;1.38;;;;;;;;;;5008471;28;20506;-46
2022/04/01 06:30:07;;;;;;;2.90;1.30;;;;;;;;;;5008557;28;20045;-55
2022/04/01 06:32:38;;;;;;;4.53;1.10;;;;;;;;;;5009323;28;20056;-47
2022/04/01 06:35:18;;;;;;;3.50;1.27;;;1.90;99.90;;;;;;5007409;28;20417;-49
2022/04/01 06:38:14;;;;;;;3.15;1.00;;;;;;;;;;5010015;28;20618;-46
2022/04/01 06:40:55;;;;;;;4.35;1.20;;;;;;;;;;4964464;28;20061;-48
2022/04/01 06:43:21;;;;;;;2.08;0.85;;;;;;;;;;4963445;28;20511;-44
2022/04/01 06:45:47;;;;;;;6.30;1.30;;;;;;;;;;4967323;28;20100;-45
2022/04/01 06:48:13;;;;;;;4.18;1.30;;;;;;;;;;4968206;28;20054;-45
2022/04/01 06:50:41;;;;;;;7.07;1.38;;;;;;;;;;4982218;28;20132;-44
2022/04/01 06:53:07;;;;;;;2.08;0.90;;;;;;;;;;4967663;28;20049;-43
2022/04/01 06:55:33;;;;;;;4.80;1.40;;;;;;;;;;5008233;28;20527;-47
2022/04/01 06:57:59;;;;;;;5.30;1.60;;;;;;;;;;5049224;28;20052;-44
2022/04/01 07:00:27;;;;;;;2.22;1.05;;;;;;;;;;5050415;28;20040;-43
2022/04/01 07:02:53;;;;;;;4.05;1.20;;;;;;;;;;5050934;28;20052;-47
2022/04/01 07:05:19;;;;;;;5.15;2.40;;;;;;;;;;5050230;28;20258;-43
2022/04/01 07:07:47;;;;;;;2.70;0.80;;;2.30;99.90;;;;;;5050246;28;20133;-43
2022/04/01 07:10:14;;;;;;;5.85;1.65;;;;;;;;;;5051022;28;20067;-44
2022/04/01 07:12:40;;;;;;;3.25;0.95;;;;;;;;;;5050702;28;20044;-43
2022/04/01 07:15:08;;;;;;;6.43;1.40;;;;;;;;;;5049237;28;20044;-42
2022/04/01 07:17:34;;;;;;;3.42;1.10;;;;;;;;;;5066152;28;20773;-44
2022/04/01 07:20:00;;;;;;;5.15;1.58;;;;;;;;;;5080207;28;20055;-45
2022/04/01 07:22:26;;;;;;;3.03;1.20;;;;;;;;;;5076268;28;20044;-44
2022/04/01 07:24:52;;;;;;;3.90;1.40;;;;;;;;;;5094264;28;20100;-44
2022/04/01 07:27:19;;;;;;;12.88;2.67;;;;;;;;;;5094241;28;20047;-44
2022/04/01 07:29:46;;;;;;;3.90;1.27;;;2.60;99.90;;;;;;5076462;28;20039;-45
2022/04/01 07:32:32;;;;;;;3.50;1.08;;;;;;;;;;5094106;28;20065;-43
2022/04/01 07:34:58;;;;;;;3.83;1.10;;;;;;;;;;5094243;28;20043;-42
2022/04/01 07:37:25;;;;;;;5.68;1.38;;;;;;;;;;5093419;28;21356;-43
2022/04/01 07:39:52;;;;;;;2.28;0.85;;;;;;;;;;5096365;28;20046;-42
2022/04/01 07:42:19;;;;;;;2.35;0.80;;;;;;;;;;5094033;28;20047;-43
2022/04/01 07:44:45;;;;;;;5.15;1.17;;;;;;;;;;5091963;28;20035;-43
2022/04/01 07:47:14;;;;;;;3.00;1.40;;;;;;;;;;5073815;28;20044;-43
2022/04/01 07:49:40;;;;;;;7.88;1.17;;;;;;;;;;5093437;28;20114;-45
2022/04/01 07:52:08;;;;;;;7.32;1.83;;;;;;;;;;5092277;28;20074;-45
2022/04/01 07:54:35;;;;;;;3.28;1.35;;;;;;;;;;5095351;28;20100;-51
2022/04/01 07:57:01;;;;;;;3.33;1.00;;;;;;;;;;5099007;28;20036;-44
2022/04/01 07:59:27;;;;;;;4.20;1.27;;;;;;;;;;5099397;28;20039;-48
2022/04/01 08:01:53;;;;;;;7.38;1.17;;;;;;;;;;5098530;28;20052;-48
2022/04/01 08:04:20;;;;;;;4.82;0.98;;;;;;;;;;5097835;28;20590;-44
2022/04/01 08:06:46;;;;;;;5.45;1.40;;;;;;;;;;5097953;28;20419;-43
2022/04/01 08:09:12;;;;;;;5.00;1.50;;;;;;;;;;5079905;28;20053;-46
2022/04/01 08:11:41;;;;;;;2.47;0.98;;;2.70;99.90;;;;;;5098460;28;20123;-48
2022/04/01 08:14:07;;;;;;;4.75;1.20;;;;;;;;;;5098770;28;20079;-48
2022/04/01 08:16:33;;;;;;;4.38;1.40;;;;;;;;;;5098979;28;20131;-43
2022/04/01 08:18:59;;;;;;;4.40;1.23;;;;;;;;;;5099217;28;20046;-42
2022/04/01 08:21:26;;;;;;;3.83;1.38;;;;;;;;;;5080098;28;20195;-45
2022/04/01 08:23:52;;;;;;;5.95;1.65;;;;;;;;;;5098883;28;20129;-48
2022/04/01 08:26:20;;;;;;;5.30;1.80;;;;;;;;;;5098786;28;20153;-43
2022/04/01 08:28:46;;;;;;;17.85;1.65;;;;;;;;;;5098649;28;20517;-45
2022/04/01 08:31:12;;;;;;;4.80;1.70;;;;;;;;;;5098278;28;20047;-47
2022/04/01 08:33:38;;;;;;;5.65;1.30;;;;;;;;;;5098854;28;20039;-47
2022/04/01 08:36:05;;;;;;;4.13;2.00;;;;;;;;;;5097736;28;20705;-45
2022/04/01 08:38:31;;;;;;;3.28;1.23;;;;;;;;;;5098921;28;20035;-45
2022/04/01 08:40:57;;;;;;;3.80;1.25;;;;;;;;;;5098265;28;20084;-43
2022/04/01 08:43:25;;;;;;;6.35;1.45;;;2.70;99.90;;;;;;5098113;28;20519;-43
2022/04/01 08:45:51;;;;;;;2.22;0.82;;;;;;;;;;5098733;28;20043;-43
2022/04/01 08:48:19;;;;;;;4.13;1.05;;;;;;;;;;5099098;28;20108;-43
2022/04/01 08:50:45;;;;;;;2.97;1.00;;;;;;;;;;5099534;28;20041;-42
2022/04/01 08:53:11;;;;;;;3.65;1.13;;;;;;;;;;5098867;28;20273;-42
2022/04/01 08:55:38;;;;;;;2.95;1.25;;;3.10;99.90;;;;;;5099236;28;20035;-42
2022/04/01 08:58:05;;;;;;;2.40;0.90;;;;;;;;;;5098189;28;20126;-42
2022/04/01 09:00:31;;;;;;;6.35;1.67;;;;;;;;;;5099450;28;20072;-45
2022/04/01 09:03:02;;;;;;;2.58;1.08;;;;;;;;;;5099265;28;20047;-43
2022/04/01 09:05:28;;;;;;;4.05;1.40;;;;;;;;;;5080002;28;20063;-42
2022/04/01 09:08:04;;;;;;;9.02;1.27;;;;;;;;;;5099154;28;20043;-43
2022/04/01 09:10:30;;;;;;;4.35;1.63;;;;;;;;;;5097758;28;20135;-44
2022/04/01 09:12:57;;;;;;;4.38;1.70;;;;;;;;;;5080178;28;20035;-45
2022/04/01 09:15:23;;;;;;;2.38;1.33;;;;;;;;;;5096794;28;20079;-44
2022/04/01 09:17:51;;;;;;;5.25;1.45;;;3.40;99.90;;;;;;5079458;28;20136;-43
2022/04/01 09:20:17;;;;;;;2.63;1.30;;;;;;;;;;5097181;28;20077;-45
2022/04/01 09:22:45;;;;;;;4.80;1.30;;;3.50;99.90;;;;;;5095942;28;20097;-44
2022/04/01 09:25:18;;;;;;;2.33;1.10;;;3.60;99.90;;;;;;5096983;28;20210;-44
2022/04/01 09:27:49;;;;;;;3.45;1.65;;;3.50;99.90;;;;;;5097299;28;20514;-43
2022/04/01 09:30:21;;;;;;;3.17;1.05;;;3.60;99.90;;;;;;5096750;28;20039;-44
2022/04/01 09:32:51;;;;;;;3.40;1.35;;;;;;;;;;5097693;28;20375;-47
2022/04/01 09:35:20;;;;;;;6.03;1.48;;;;;;;;;;5097121;28;21191;-45
2022/04/01 09:37:50;;;;;;;4.57;1.38;;;;;;;;;;5096977;28;20043;-47
2022/04/01 09:40:18;;;;;;;4.13;1.13;;;;;;;;;;5097095;28;20054;-44
2022/04/01 09:42:49;;;;;;;3.33;1.20;;;;;;;;;;5097166;28;20086;-44
2022/04/01 09:45:29;;;;;;;3.60;1.70;;;3.60;99.90;;;;;;5097142;28;20092;-46
2022/04/01 09:48:01;;;;;;;3.03;0.98;;;3.90;99.90;;;;;;5079397;28;20079;-42
2022/04/01 09:50:28;;;;;;;4.65;1.42;;;;;;;;;;5097103;28;20043;-44
2022/04/01 09:52:55;;;;;;;3.72;1.20;;;;;;;;;;5097465;28;20035;-43
2022/04/01 09:55:21;;;;;;;4.15;1.30;;;;;;;;;;5097071;28;20051;-47
2022/04/01 09:57:47;;;;;;;2.53;0.98;;;;;;;;;;5097310;28;20820;-47
2022/04/01 10:00:13;;;;;;;5.88;1.40;;;;;;;;;;5096849;28;20054;-46
2022/04/01 10:02:40;;;;;;;2.75;1.27;;;;;;;;;;5097207;28;20059;-47
2022/04/01 10:05:07;;;;;;;3.35;1.42;;;4.20;99.90;;;;;;5096986;28;20055;-45
2022/04/01 10:07:33;;;;;;;5.32;2.45;;;4.20;99.90;;;;;;5098275;28;20079;-45
2022/04/01 10:10:02;;;;;;;1.95;1.05;;;4.30;99.90;;;;;;5099064;28;20404;-44
2022/04/01 10:12:34;;;;;;;7.03;1.50;;;4.40;99.90;;;;;;5101244;28;20035;-45
2022/04/01 10:15:00;;;;;;;;;;;4.30;99.90;;;;;;5096295;28;20555;-47
2022/04/01 10:17:29;;;;;;;3.38;1.20;;;4.50;99.90;;;;;;5096217;28;19934;-48
2022/04/01 10:19:57;;;;;;;4.00;1.17;;;4.40;99.90;;;;;;5094393;28;20043;-48
2022/04/01 10:22:23;;;;;;;5.93;1.50;;;;;;;;;;5094855;28;20089;-44
2022/04/01 10:25:08;;;;;;;3.63;1.02;;;;;;;;;;5096516;28;20023;-46
2022/04/01 10:27:40;;;;;;;2.33;1.02;;;4.70;99.90;;;;;;5095610;28;20399;-46
2022/04/01 10:30:07;;;;;;;7.15;1.50;;;4.80;99.90;;;;;;5093675;28;20071;-48
2022/04/01 10:32:39;;;;;;;2.40;1.20;;;4.70;99.90;;;;;;5093695;28;20031;-46
2022/04/01 10:35:07;;;;;;;1.35;0.80;;;4.90;99.90;;;;;;5093633;28;20095;-47
2022/04/01 10:37:34;;;;;;;3.25;1.10;;;4.80;99.90;;;;;;5093980;28;20301;-47
2022/04/01 10:40:16;;;;;;;6.25;1.30;;;4.40;99.90;;;;;;5093453;28;20040;-45
2022/04/01 10:42:42;;;;;;;4.93;1.20;;;;;;;;;;5095710;28;20035;-48
2022/04/01 10:45:17;;;;;;;2.30;0.93;;;5.20;99.90;;;;;;5094821;28;20274;-45
2022/04/01 10:53:39;;;;;;;1.88;0.82;;;5.20;99.90;;;;;;5094566;28;20058;-48
2022/04/01 10:56:56;;;;;;;1.98;0.65;;;5.20;99.90;;;;;;5092897;28;20036;-46
2022/04/01 10:59:24;;;;;;;2.50;0.98;;;5.30;99.90;;;;;;5030033;28;20041;-46
2022/04/01 11:02:18;;;;;;;2.67;0.57;;;5.20;99.90;;;;;;5030898;28;20067;-50
2022/04/01 11:04:45;;;;;;;0.88;0.50;;;5.20;99.90;;;;;;4952838;28;20042;-48
2022/04/01 11:07:14;;;;;;;2.72;0.82;;;;;;;;;;4950717;28;20065;-46
2022/04/01 11:09:40;;;;;;;1.48;0.70;;;;;;;;;;4952320;28;20055;-48
2022/04/01 11:12:15;;;;;;;2.95;1.15;;;5.20;99.90;;;;;;4951317;28;21064;-48
2022/04/01 11:15:11;;;;;;;2.30;0.65;;;5.30;99.90;;;;;;4954237;28;20046;-46
2022/04/01 11:17:38;;;;;;;3.17;1.20;;;;;;;;;;4936436;28;20050;-47
2022/04/01 11:20:10;;;;;;;1.63;0.68;;;5.30;99.90;;;;;;4951520;28;20066;-45
2022/04/01 11:22:54;;;;;;;2.47;0.60;;;5.30;99.90;;;;;;4951707;28;20047;-47
2022/04/01 11:25:23;;;;;;;2.97;0.77;;;5.40;99.90;;;;;;4951655;28;20966;-46
2022/04/01 11:28:10;;;;;;;2.28;0.90;;;5.10;99.90;;;;;;4952670;28;20430;-45
2022/04/01 11:30:38;;;;;;;4.28;0.80;;;5.40;99.90;;;;;;4952721;28;20511;-45
2022/04/01 11:33:10;;;;;;;2.83;0.82;;;5.30;99.90;;;;;;4967400;28;20050;-45
2022/04/01 11:35:41;;;;;;;3.58;0.50;;;5.30;99.90;;;;;;4986184;28;20050;-46
2022/04/01 11:38:14;;;;;;;2.47;0.90;;;5.40;99.90;;;;;;4985329;28;20045;-48
2022/04/01 11:40:41;;;;;;;1.83;0.68;;;5.40;99.90;;;;;;4990392;28;20533;-47
2022/04/01 11:43:09;;;;;;;2.95;0.63;;;5.40;99.90;;;;;;5091376;28;20040;-49
2022/04/01 11:45:47;;;;;;;3.25;0.63;;;5.50;99.90;;;;;;5091828;28;20044;-50
2022/04/01 11:48:27;;;;;;;2.45;0.70;;;5.50;99.90;;;;;;5091831;28;20055;-45
2022/04/01 11:51:17;;;;;;;1.65;0.73;;;5.60;99.90;;;;;;5090788;28;20039;-49
2022/04/01 11:53:49;;;;;;;1.48;0.73;;;5.70;99.90;;;;;;5091263;28;20047;-48
2022/04/01 11:56:21;;;;;;;3.15;0.90;;;5.70;99.90;;;;;;5090121;28;20078;-49
2022/04/01 11:58:47;;;;;;;2.47;0.73;;;;;;;;;;5090991;28;20035;-50
2022/04/01 12:01:20;;;;;;;2.65;0.93;;;5.40;99.90;;;;;;5091447;28;20131;-50
2022/04/01 12:03:47;;;;;;;1.48;0.60;;;;;;;;;;5091708;28;20513;-51
2022/04/01 12:09:05;;;;;;;4.85;1.00;;;5.30;99.90;;;;;;5091260;28;20138;-50
2022/04/01 12:11:41;;;;;;;2.45;0.90;;;5.20;99.90;;;;;;5089994;28;20027;-46
2022/04/01 12:14:10;;;;;;;1.65;0.73;;;5.30;99.90;;;;;;5091425;28;20512;-48
2022/04/01 12:16:42;;;;;;;3.70;1.02;;;5.10;99.90;;;;;;5090456;28;20032;-46
2022/04/01 12:19:14;;;;;;;4.10;1.02;;;5.00;99.90;;;;;;5071904;28;20036;-48
2022/04/01 12:21:40;;;;;;;3.33;1.73;;;;;;;;;;4991357;28;2818836;-50
2022/04/01 12:24:06;;;;;;;3.00;1.15;;;5.30;99.90;;;;;;5090288;28;20044;-49
2022/04/01 12:26:32;;;;;;;4.00;1.30;;;;;;;;;;5091586;28;20042;-47
2022/04/01 12:28:58;;;;;;;7.60;1.08;;;;;;;;;;5092762;28;20086;-49
2022/04/01 12:31:27;;;;;;;5.10;1.30;;;5.40;99.90;;;;;;5073277;28;20043;-50
2022/04/01 12:33:58;;;;;;;2.88;1.23;;;5.20;99.90;;;;;;5091000;28;20050;-47
2022/04/01 12:36:35;;;;;;;4.90;1.65;;;5.10;99.90;;;;;;5092024;28;20527;-45
2022/04/01 12:39:01;;;;;;;5.05;1.60;;;;;;;;;;5092490;28;20047;-50
2022/04/01 12:41:27;;;;;;;4.78;1.25;;;;;;;;;;5091281;28;20097;-45
2022/04/01 12:43:53;;;;;;;3.97;1.05;;;;;;;;;;5094546;28;20036;-45
2022/04/01 12:46:19;;;;;;;5.00;1.50;;;;;;;;;;5092779;28;20299;-46
2022/04/01 12:48:51;;;;;;;4.65;1.15;;;4.90;99.90;;;;;;5092525;28;20048;-46
2022/04/01 12:51:19;;;;;;;3.23;1.30;;;5.20;99.90;;;;;;5092093;28;20046;-47
2022/04/01 12:54:04;;;;;;;2.45;0.93;;;5.10;99.90;;;;;;5091899;28;20089;-45
2022/04/01 12:56:30;;;;;;;3.05;0.80;;;;;;;;;;5092671;28;20039;-49
2022/04/01 12:58:58;;;;;;;8.57;1.73;;;4.90;99.90;;;;;;5091998;28;20043;-47
2022/04/01 13:01:26;;;;;;;2.85;0.90;;;5.10;99.90;;;;;;5090938;28;20052;-47
2022/04/01 13:03:53;;;;;;;5.53;1.52;;;5.00;99.90;;;;;;5091817;28;20039;-46
2022/04/01 13:06:23;;;;;;;7.68;1.40;;;;;;;;;;5091256;28;20082;-47
2022/04/01 13:09:14;;;;;;;2.92;1.05;;;5.10;99.90;;;;;;5090947;28;20135;-46
2022/04/01 13:11:40;;;;;;;1.83;0.80;;;;;;;;;;5090955;28;20100;-46
2022/04/01 13:14:27;;;;;;;2.08;0.90;;;4.90;99.90;;;;;;5091141;28;20031;-44
2022/04/01 13:16:58;;;;;;;4.03;1.00;;;5.20;99.90;;;;;;5088695;28;22211;-49
2022/04/01 13:19:32;;;;;;;2.50;0.73;;;5.20;99.90;;;;;;5088522;28;20508;-45
2022/04/01 13:22:00;;;;;;;2.40;0.73;;;5.30;99.90;;;;;;5089017;28;20550;-46
2022/04/01 13:24:47;;;;;;;4.30;1.23;;;7.00;99.90;;;;;;5089796;28;20109;-48
2022/04/01 13:27:19;;;;;;;3.05;1.20;;;5.20;99.90;;;;;;5091198;28;20059;-48
2022/04/01 13:29:45;;;;;;;0.63;0.47;;;5.40;99.90;;;;;;5090047;28;20039;-47
2022/04/01 13:32:14;;;;;;;2.92;1.23;;;5.10;99.90;;;;;;5070478;28;20067;-48
2022/04/01 13:34:40;;;;;;;2.63;0.98;;;5.10;99.90;;;;;;5089260;28;20582;-45
2022/04/01 13:37:08;;;;;;;3.13;0.90;;;5.30;99.90;;;;;;5091232;28;20040;-49
2022/04/01 13:39:34;;;;;;;2.90;0.98;;;;;;;;;;5090561;28;20568;-48
2022/04/01 13:42:00;;;;;;;3.83;1.17;;;;;;;;;;5091098;28;20036;-45
2022/04/01 13:44:29;;;;;;;4.00;1.58;;;5.00;99.90;;;;;;5090656;28;20167;-46
2022/04/01 13:46:56;;;;;;;2.35;1.20;;;5.10;99.90;;;;;;5089838;28;20123;-47
2022/04/01 13:49:22;;;;;;;7.07;1.45;;;;;;;;;;5089459;28;20039;-47
2022/04/01 13:51:50;;;;;;;4.45;2.20;;;5.00;99.90;;;;;;5090527;28;20032;-45
2022/04/01 13:54:16;;;;;;;2.75;1.30;;;;;;;;;;5091808;28;20036;-46
2022/04/01 13:56:42;;;;;;;3.85;0.82;;;;;;;;;;5089822;28;20059;-45
2022/04/01 13:59:08;;;;;;;3.70;1.05;;;;;;;;;;5092326;28;20353;-46
2022/04/01 14:01:35;;;;;;;7.15;1.42;;;5.20;99.90;;;;;;5091678;28;20096;-47
2022/04/01 14:04:02;;;;;;;5.10;1.20;;;5.30;99.90;;;;;;5091505;28;20040;-45
2022/04/01 14:06:30;;;;;;;2.60;1.10;;;;;;;;;;5091766;28;20074;-45
2022/04/01 14:08:58;;;;;;;3.35;0.95;;;5.80;99.90;;;;;;5092589;28;20040;-45
2022/04/01 14:11:24;;;;;;;6.05;1.30;;;;;;;;;;5091897;28;20286;-45
2022/04/01 14:13:51;;;;;;;4.10;1.08;;;5.10;99.90;;;;;;5091592;28;20344;-46
2022/04/01 14:16:18;;;;;;;4.90;1.30;;;;;;;;;;5091191;28;20058;-46
2022/04/01 14:18:44;;;;;;;5.78;1.25;;;;;;;;;;5072361;28;20491;-46
2022/04/01 14:21:11;;;;;;;4.78;1.23;;;5.00;99.90;;;;;;5091869;28;20424;-46
2022/04/01 14:23:38;;;;;;;5.28;1.08;;;;;;;;;;5090445;28;20047;-48
2022/04/01 14:26:06;;;;;;;3.20;1.55;;;5.30;99.90;;;;;;5090458;28;20064;-45
2022/04/01 14:28:41;;;;;;;5.22;1.55;;;5.30;99.90;;;;;;5089557;28;21338;-46
2022/04/01 14:31:08;;;;;;;5.03;1.15;;;5.50;99.90;;;;;;5090857;28;20067;-50
2022/04/01 14:33:34;;;;;;;5.03;1.30;;;;;;;;;;5090457;28;20051;-47
2022/04/01 14:36:01;;;;;;;6.45;1.60;;;5.20;99.90;;;;;;5091959;28;20050;-48
2022/04/01 14:38:27;;;;;;;4.30;1.38;;;;;;;;;;5089588;28;20150;-47
2022/04/01 14:40:54;;;;;;;2.10;1.05;;;5.40;99.90;;;;;;5090205;28;20031;-45